CheckWX is a tool to help pilots better visualize weather data.  It is not intended as a substitute for an official pre-flight weather briefing.

18:23:30 UTC

F70 METAR
French Valley Airport
Murrieta/Temecula, California, USA
Current

9 mins ago

KF70 171815Z AUTO 20010G16KT 10SM SCT034 SCT041 11/00 A3007 RMK AO1
Observed
Feb-17 @ 18:15 UTC
Wind
  • 200° at 10 KTS
  • Gusting to 16 KTS
Visibility
10 SM
Flight Rules
VFR
Cloud Levels
  • Scattered at 3,400' AGL
  • Scattered at 4,100' AGL
Temperature
11°C / 52°F
Dewpoint
C / 32°F
Humidity
47%
Altimeter
30.07" Hg
Pressure
1018.32 hPa
Previous

49 mins ago

KF70 171735Z AUTO 21008KT 10SM SCT023 10/02 A3007 RMK AO1
Observed
Feb-17 @ 17:35 UTC
Wind
  • 210° at 8 KTS
Visibility
10 SM
Flight Rules
VFR
Cloud Levels
  • Scattered at 2,300' AGL
Temperature
10°C / 50°F
Dewpoint
C / 36°F
Humidity
58%
Altimeter
30.07" Hg
Pressure
1018.32 hPa
Previous

1 hour ago

KF70 171715Z AUTO 18008KT 10SM SCT023 09/03 A3007 RMK AO1
Observed
Feb-17 @ 17:15 UTC
Wind
  • 180° at 8 KTS
Visibility
10 SM
Flight Rules
VFR
Cloud Levels
  • Scattered at 2,300' AGL
Temperature
C / 48°F
Dewpoint
C / 37°F
Humidity
66%
Altimeter
30.07" Hg
Pressure
1018.32 hPa